Seabourn Legend — C6FR6 — position and weather

sailwx.info

Track history (hours):
 
Tides and Currents Weather Stations Pressure Air Temp Water Temp Dewpoint Dewpoint Depression Visibility Wind Speed Wind Dir Waves Ship Positions

Seabourn Legend

Operator: Cunard Seabourn

Last reported at 2017-Jun-23 16:59 UTC. Time now 2017-Jun-23 17:24 UTC.
Position N 48°55' W 004°26'.

Length 135 m; draft 5.7 m.

Type: Passenger vessel. MMSI: 311085000.

Date/timePositionNaut miles runAvg speedWind from/ knotsBaromVisibWave heightAir tempDewpointWater temp
2017-Jun-23 16:59N 48°55' W 004°26'712.7
2017-Jun-23 16:27N 48°53' W 004°35'613.6
2017-Jun-23 15:59N 48°50' W 004°44'613.3
2017-Jun-23 15:30N 48°48' W 004°53'613.1
2017-Jun-23 15:01N 48°45' W 005°02'1413.6
2017-Jun-23 14:00N 48°36' W 005°17'813.0
2017-Jun-23 13:22N 48°29' W 005°25'1611.7
2017-Jun-23 11:59N 48°13' W 005°25'612.1
2017-Jun-23 11:30N 48°07' W 005°23'811.9
2017-Jun-23 10:51N 47°60' W 005°22'511.4
2017-Jun-23 10:27N 47°55' W 005°19'711.4
2017-Jun-23 09:51N 47°51' W 005°11'411.2
2017-Jun-23 09:30N 47°49' W 005°07'510.6
2017-Jun-23 09:00N 47°46' W 005°00'510.8
2017-Jun-23 08:30N 47°43' W 004°54'611.0
2017-Jun-23 07:56N 47°39' W 004°46'610.9
2017-Jun-23 07:26N 47°36' W 004°40'510.9
2017-Jun-23 07:01N 47°33' W 004°34'611.1
2017-Jun-23 06:30N 47°30' W 004°27'611.2
2017-Jun-23 06:01N 47°27' W 004°21'611.2
2017-Jun-23 05:30N 47°23' W 004°14'611.2
2017-Jun-23 05:00N 47°20' W 004°07'611.2
2017-Jun-23 04:30N 47°17' W 004°00'610.9
2017-Jun-23 03:58N 47°13' W 003°53'510.9
2017-Jun-23 03:30N 47°11' W 003°47'611.2
2017-Jun-23 03:00N 47°08' W 003°40'511.1
2017-Jun-23 02:31N 47°05' W 003°33'611.0
2017-Jun-23 02:01N 47°02' W 003°27'510.9
2017-Jun-23 01:30N 46°59' W 003°20'510.9
2017-Jun-23 01:01N 46°56' W 003°13'510.4
2017-Jun-23 00:31N 46°53' W 003°07'510.1
2017-Jun-23 00:00N 46°50' W 003°01'5 9.9
2017-Jun-22 23:29N 46°46' W 002°55'510.1
2017-Jun-22 23:00N 46°43' W 002°51'610.2
2017-Jun-22 22:27N 46°39' W 002°44'410.3
2017-Jun-22 22:01N 46°37' W 002°39'510.5
2017-Jun-22 21:30N 46°33' W 002°33'510.7
2017-Jun-22 21:00N 46°30' W 002°26'510.7
2017-Jun-22 20:30N 46°27' W 002°20'510.7
2017-Jun-22 20:00N 46°24' W 002°14'511.0
2017-Jun-22 19:30N 46°21' W 002°08'611.1
2017-Jun-22 19:00N 46°17' W 002°01'611.1
2017-Jun-22 18:30N 46°14' W 001°55'511.0
2017-Jun-22 18:01N 46°11' W 001°48'610.9
2017-Jun-22 17:27N 46°08' W 001°41'611.7
2017-Jun-22 16:59N 46°07' W 001°33'612.3
2017-Jun-22 16:31N 46°06' W 001°24'611.4
2017-Jun-22 16:00N 46°06' W 001°16'4 8.2
2017-Jun-22 15:30N 46°10' W 001°13'0 0.6
2017-Jun-22 15:00N 46°10' W 001°13'0 0.0
2017-Jun-22 14:28N 46°10' W 001°13'0 0.0
2017-Jun-22 13:30N 46°10' W 001°13'0 0.0
2017-Jun-22 13:00N 46°10' W 001°13'0 0.0
2017-Jun-22 12:30N 46°10' W 001°13'0 0.0
2017-Jun-22 12:00N 46°10' W 001°13'0 0.0
2017-Jun-22 11:29N 46°10' W 001°13'0 0.0
2017-Jun-22 10:59N 46°10' W 001°13'0 0.0
2017-Jun-22 10:29N 46°10' W 001°13'0 0.0
2017-Jun-22 09:59N 46°10' W 001°13'0 0.0
2017-Jun-22 09:28N 46°10' W 001°13'0 0.0
2017-Jun-22 08:58N 46°10' W 001°13'0 0.0
2017-Jun-22 08:28N 46°10' W 001°13'0 0.0
2017-Jun-22 07:58N 46°10' W 001°13'0 0.0
2017-Jun-22 07:28N 46°10' W 001°13'0 0.0
2017-Jun-22 07:00N 46°10' W 001°13'0 0.0
2017-Jun-22 06:30N 46°10' W 001°13'0 0.0
2017-Jun-22 06:00N 46°10' W 001°13'0 0.1
2017-Jun-22 05:31N 46°10' W 001°13'0 0.2
2017-Jun-22 05:01N 46°10' W 001°13'0 0.5
2017-Jun-22 04:30N 46°10' W 001°13'4 8.1
2017-Jun-22 04:01N 46°06' W 001°16'5 9.8
2017-Jun-22 03:31N 46°06' W 001°23'5 9.7
2017-Jun-22 03:01N 46°07' W 001°30'510.0
2017-Jun-22 02:31N 46°07' W 001°37'5 9.9
2017-Jun-22 02:01N 46°08' W 001°44'5 9.9
2017-Jun-22 01:31N 46°06' W 001°51'5 9.2
2017-Jun-22 01:00N 46°02' W 001°50'5 9.6
2017-Jun-22 00:31N 45°57' W 001°47'5 9.6
2017-Jun-22 00:01N 45°53' W 001°44'5 9.5
2017-Jun-21 23:31N 45°49' W 001°41'5 9.9
2017-Jun-21 23:01N 45°44' W 001°38'5 9.7
2017-Jun-21 22:30N 45°41' W 001°33'510.0
2017-Jun-21 22:01N 45°39' W 001°27'4 8.2
2017-Jun-21 21:30N 45°36' W 001°22'612.1
2017-Jun-21 21:00N 45°39' W 001°15'611.6
2017-Jun-21 20:30N 45°38' W 001°07'612.7
2017-Jun-21 20:00N 45°33' W 001°01'713.8
2017-Jun-21 19:30N 45°28' W 000°55'814.4
2017-Jun-21 18:58N 45°22' W 000°48'1015.2
2017-Jun-21 18:18N 45°12' W 000°44'17 0.4
2017-Jun-20 02:06N 44°57' W 000°33'113.5
2017-Jun-20 02:00N 44°58' W 000°33'5 9.7
2017-Jun-20 01:30N 45°02' W 000°36'714.3
2017-Jun-20 01:00N 45°08' W 000°42'713.7
2017-Jun-20 00:28N 45°15' W 000°45'613.9
2017-Jun-20 00:01N 45°21' W 000°48'2214.7
2017-Jun-19 22:29N 45°38' W 001°08'813.4
2017-Jun-19 21:53N 45°38' W 001°19'512.2
2017-Jun-19 21:30N 45°36' W 001°25'510.3
2017-Jun-19 21:00N 45°34' W 001°32'20 9.4
2017-Jun-19 18:50N 45°27' W 001°59'11610.9
2017-Jun-19 08:11N 44°46' W 004°33'8412.7
2017-Jun-19 01:31N 44°16' W 006°24'312.3
2017-Jun-19 01:15N 44°15' W 006°28'147 6.7
2017-Jun-18 03:14N 43°24' W 009°39'9912.8
2017-Jun-17 19:33N 41°46' W 009°19'112.5
2017-Jun-17 19:26N 41°45' W 009°18'512.5
2017-Jun-17 19:00N 41°40' W 009°14'612.2
2017-Jun-17 18:30N 41°35' W 009°09'612.6
2017-Jun-17 18:00N 41°30' W 009°05'612.5
2017-Jun-17 17:30N 41°25' W 009°00'612.6
2017-Jun-17 17:00N 41°20' W 008°56'612.7
2017-Jun-17 16:31N 41°14' W 008°51'22 2.2
2017-Jun-17 06:25N 40°52' W 008°57'512.7
2017-Jun-17 06:00N 40°48' W 008°59'2612.9
2017-Jun-17 04:01N 40°24' W 009°12'012.4
2017-Jun-17 04:00N 40°24' W 009°12'612.6
2017-Jun-17 03:30N 40°18' W 009°16'712.4
2017-Jun-17 02:56N 40°12' W 009°20'512.5
2017-Jun-17 02:30N 40°07' W 009°23'612.6
2017-Jun-17 02:01N 40°02' W 009°27'612.3
2017-Jun-17 01:30N 39°56' W 009°30'612.3
2017-Jun-17 01:00N 39°50' W 009°33'612.5
2017-Jun-17 00:30N 39°45' W 009°37'612.3
2017-Jun-17 00:00N 39°39' W 009°40'612.2
2017-Jun-16 23:30N 39°34' W 009°44'611.8
2017-Jun-16 23:00N 39°28' W 009°46'612.0
2017-Jun-16 22:30N 39°22' W 009°45'612.3
2017-Jun-16 22:01N 39°16' W 009°45'611.6
2017-Jun-16 21:30N 39°10' W 009°44'611.5
2017-Jun-16 21:01N 39°04' W 009°44'611.6
2017-Jun-16 20:30N 38°59' W 009°43'611.6
2017-Jun-16 20:01N 38°53' W 009°43'611.3
2017-Jun-16 19:31N 38°47' W 009°42'611.5
2017-Jun-16 19:00N 38°41' W 009°42'5 9.2
2017-Jun-16 18:31N 38°38' W 009°38'612.0
2017-Jun-16 18:00N 38°37' W 009°30'611.8
2017-Jun-16 17:30N 38°37' W 009°23'510.8
2017-Jun-16 17:01N 38°41' W 009°18'510.4
2017-Jun-16 16:30N 38°41' W 009°11'3 6.2
2017-Jun-16 16:00N 38°43' W 009°07'0 0.0
2017-Jun-16 15:29N 38°43' W 009°07'0 0.0
2017-Jun-16 14:59N 38°43' W 009°07'0 0.0
2017-Jun-16 13:25N 38°43' W 009°07'0 0.0
2017-Jun-16 12:52N 38°43' W 009°07'0 0.0
2017-Jun-16 12:28N 38°43' W 009°07'0 0.0
2017-Jun-16 11:58N 38°43' W 009°07'0 0.0
2017-Jun-16 11:27N 38°43' W 009°07'0 0.0
2017-Jun-16 11:00N 38°43' W 009°07'0 0.0
2017-Jun-16 10:30N 38°43' W 009°07'0 0.0
2017-Jun-16 10:00N 38°43' W 009°07'0 0.0
2017-Jun-16 09:24N 38°43' W 009°07'0 0.0
2017-Jun-16 08:59N 38°43' W 009°07'0 0.0
2017-Jun-16 08:17N 38°43' W 009°07'0 0.0
2017-Jun-16 07:56N 38°43' W 009°07'0 0.0
2017-Jun-16 07:11N 38°43' W 009°07'0 0.0
2017-Jun-16 06:58N 38°43' W 009°07'0 0.0
2017-Jun-16 06:30N 38°43' W 009°07'0 0.3
2017-Jun-16 06:00N 38°43' W 009°07'4 8.2
2017-Jun-16 05:30N 38°41' W 009°12'5 9.3
2017-Jun-16 05:00N 38°40' W 009°18'5 9.5
2017-Jun-16 04:30N 38°37' W 009°22'5 9.7
2017-Jun-16 04:00N 38°32' W 009°23'714.4
2017-Jun-16 03:31N 38°25' W 009°23'815.1
2017-Jun-16 03:00N 38°17' W 009°22'714.9
2017-Jun-16 02:31N 38°10' W 009°22'714.6
2017-Jun-16 02:00N 38°03' W 009°22'714.4
2017-Jun-16 01:30N 37°55' W 009°22'714.1
2017-Jun-16 01:00N 37°48' W 009°21'714.0
2017-Jun-16 00:30N 37°41' W 009°21'714.0
2017-Jun-16 00:01N 37°34' W 009°21'714.2
2017-Jun-15 23:31N 37°27' W 009°21'713.8
2017-Jun-15 23:01N 37°20' W 009°21'713.4
2017-Jun-15 22:30N 37°14' W 009°21'713.4
2017-Jun-15 22:00N 37°07' W 009°20'713.2
2017-Jun-15 21:30N 37°00' W 009°20'611.5
2017-Jun-15 21:00N 36°55' W 009°18'612.1
2017-Jun-15 20:29N 36°50' W 009°14'510.2
2017-Jun-15 20:00N 36°46' W 009°10'3217.1
2017-Jun-15 20:00N 36°48' W 009°06'4 8.8 350 / 211015.5 5.4 19.816.221.4
2017-Jun-15 19:30N 36°44' W 009°04'5 9.7
2017-Jun-15 19:00N 36°45' W 008°58'611.9
2017-Jun-15 18:30N 36°49' W 008°53'612.1
2017-Jun-15 18:00N 36°53' W 008°47'612.2
2017-Jun-15 17:30N 36°57' W 008°42'612.0
2017-Jun-15 17:00N 37°01' W 008°36'511.0
2017-Jun-15 16:30N 37°05' W 008°32'2 4.4
2017-Jun-15 16:00N 37°08' W 008°32'0 0.0
2017-Jun-15 15:30N 37°08' W 008°32'0 0.0
2017-Jun-15 14:59N 37°08' W 008°32'0 0.0
2017-Jun-15 14:29N 37°08' W 008°32'0 0.0
2017-Jun-15 13:28N 37°08' W 008°32'0 0.0
2017-Jun-15 12:58N 37°08' W 008°32'0 0.0
2017-Jun-15 12:19N 37°08' W 008°32'0 0.0
2017-Jun-15 11:58N 37°08' W 008°32'0 0.0
2017-Jun-15 11:30N 37°08' W 008°32'0 0.0
2017-Jun-15 11:00N 37°08' W 008°32'0 0.0
2017-Jun-15 10:30N 37°08' W 008°32'0 0.1
2017-Jun-15 10:00N 37°08' W 008°32'0 0.4
2017-Jun-15 09:30N 37°08' W 008°32'4 7.8
2017-Jun-15 09:00N 37°04' W 008°29'815.0
2017-Jun-15 08:30N 37°01' W 008°21'816.1
2017-Jun-15 08:00N 36°58' W 008°12'816.1
2017-Jun-15 07:30N 36°55' W 008°02'815.9
2017-Jun-15 07:00N 36°52' W 007°53'815.8
2017-Jun-15 06:30N 36°51' W 007°43'1415.7
2017-Jun-15 05:37N 36°50' W 007°26'1315.5
2017-Jun-15 04:45N 36°49' W 007°09'22 0.8
2017-Jun-14 00:58N 36°40' W 006°44'  
Track history (hours):
 
Tides and Currents Weather Stations Pressure Air Temp Water Temp Dewpoint Dewpoint Depression Visibility Wind Speed Wind Dir Waves Ship Positions

Seabourn Legend

Operator: Cunard Seabourn

Last reported at 2017-Jun-23 16:59 UTC. Time now 2017-Jun-23 17:24 UTC.
Position N 48°55' W 004°26'.

Length 135 m; draft 5.7 m.

Type: Passenger vessel. MMSI: 311085000.

Date/timePositionNaut miles runAvg speedWind from/ knotsBaromVisibWave heightAir tempDewpointWater temp
2017-Jun-23 16:59N 48°55' W 004°26'712.7
2017-Jun-23 16:27N 48°53' W 004°35'613.6
2017-Jun-23 15:59N 48°50' W 004°44'613.3
2017-Jun-23 15:30N 48°48' W 004°53'613.1
2017-Jun-23 15:01N 48°45' W 005°02'1413.6
2017-Jun-23 14:00N 48°36' W 005°17'813.0
2017-Jun-23 13:22N 48°29' W 005°25'1611.7
2017-Jun-23 11:59N 48°13' W 005°25'612.1
2017-Jun-23 11:30N 48°07' W 005°23'811.9
2017-Jun-23 10:51N 47°60' W 005°22'511.4
2017-Jun-23 10:27N 47°55' W 005°19'711.4
2017-Jun-23 09:51N 47°51' W 005°11'411.2
2017-Jun-23 09:30N 47°49' W 005°07'510.6
2017-Jun-23 09:00N 47°46' W 005°00'510.8
2017-Jun-23 08:30N 47°43' W 004°54'611.0
2017-Jun-23 07:56N 47°39' W 004°46'610.9
2017-Jun-23 07:26N 47°36' W 004°40'510.9
2017-Jun-23 07:01N 47°33' W 004°34'611.1
2017-Jun-23 06:30N 47°30' W 004°27'611.2
2017-Jun-23 06:01N 47°27' W 004°21'611.2
2017-Jun-23 05:30N 47°23' W 004°14'611.2
2017-Jun-23 05:00N 47°20' W 004°07'611.2
2017-Jun-23 04:30N 47°17' W 004°00'610.9
2017-Jun-23 03:58N 47°13' W 003°53'510.9
2017-Jun-23 03:30N 47°11' W 003°47'611.2
2017-Jun-23 03:00N 47°08' W 003°40'511.1
2017-Jun-23 02:31N 47°05' W 003°33'611.0
2017-Jun-23 02:01N 47°02' W 003°27'510.9
2017-Jun-23 01:30N 46°59' W 003°20'510.9
2017-Jun-23 01:01N 46°56' W 003°13'510.4
2017-Jun-23 00:31N 46°53' W 003°07'510.1
2017-Jun-23 00:00N 46°50' W 003°01'5 9.9
2017-Jun-22 23:29N 46°46' W 002°55'510.1
2017-Jun-22 23:00N 46°43' W 002°51'610.2
2017-Jun-22 22:27N 46°39' W 002°44'410.3
2017-Jun-22 22:01N 46°37' W 002°39'510.5
2017-Jun-22 21:30N 46°33' W 002°33'510.7
2017-Jun-22 21:00N 46°30' W 002°26'510.7
2017-Jun-22 20:30N 46°27' W 002°20'510.7
2017-Jun-22 20:00N 46°24' W 002°14'511.0
2017-Jun-22 19:30N 46°21' W 002°08'611.1
2017-Jun-22 19:00N 46°17' W 002°01'611.1
2017-Jun-22 18:30N 46°14' W 001°55'511.0
2017-Jun-22 18:01N 46°11' W 001°48'610.9
2017-Jun-22 17:27N 46°08' W 001°41'611.7
2017-Jun-22 16:59N 46°07' W 001°33'612.3
2017-Jun-22 16:31N 46°06' W 001°24'611.4
2017-Jun-22 16:00N 46°06' W 001°16'4 8.2
2017-Jun-22 15:30N 46°10' W 001°13'0 0.6
2017-Jun-22 15:00N 46°10' W 001°13'0 0.0
2017-Jun-22 14:28N 46°10' W 001°13'0 0.0
2017-Jun-22 13:30N 46°10' W 001°13'0 0.0
2017-Jun-22 13:00N 46°10' W 001°13'0 0.0
2017-Jun-22 12:30N 46°10' W 001°13'0 0.0
2017-Jun-22 12:00N 46°10' W 001°13'0 0.0
2017-Jun-22 11:29N 46°10' W 001°13'0 0.0
2017-Jun-22 10:59N 46°10' W 001°13'0 0.0
2017-Jun-22 10:29N 46°10' W 001°13'0 0.0
2017-Jun-22 09:59N 46°10' W 001°13'0 0.0
2017-Jun-22 09:28N 46°10' W 001°13'0 0.0
2017-Jun-22 08:58N 46°10' W 001°13'0 0.0
2017-Jun-22 08:28N 46°10' W 001°13'0 0.0
2017-Jun-22 07:58N 46°10' W 001°13'0 0.0
2017-Jun-22 07:28N 46°10' W 001°13'0 0.0
2017-Jun-22 07:00N 46°10' W 001°13'0 0.0
2017-Jun-22 06:30N 46°10' W 001°13'0 0.0
2017-Jun-22 06:00N 46°10' W 001°13'0 0.1
2017-Jun-22 05:31N 46°10' W 001°13'0 0.2
2017-Jun-22 05:01N 46°10' W 001°13'0 0.5
2017-Jun-22 04:30N 46°10' W 001°13'4 8.1
2017-Jun-22 04:01N 46°06' W 001°16'5 9.8
2017-Jun-22 03:31N 46°06' W 001°23'5 9.7
2017-Jun-22 03:01N 46°07' W 001°30'510.0
2017-Jun-22 02:31N 46°07' W 001°37'5 9.9
2017-Jun-22 02:01N 46°08' W 001°44'5 9.9
2017-Jun-22 01:31N 46°06' W 001°51'5 9.2
2017-Jun-22 01:00N 46°02' W 001°50'5 9.6
2017-Jun-22 00:31N 45°57' W 001°47'5 9.6
2017-Jun-22 00:01N 45°53' W 001°44'5 9.5
2017-Jun-21 23:31N 45°49' W 001°41'5 9.9
2017-Jun-21 23:01N 45°44' W 001°38'5 9.7
2017-Jun-21 22:30N 45°41' W 001°33'510.0
2017-Jun-21 22:01N 45°39' W 001°27'4 8.2
2017-Jun-21 21:30N 45°36' W 001°22'612.1
2017-Jun-21 21:00N 45°39' W 001°15'611.6
2017-Jun-21 20:30N 45°38' W 001°07'612.7
2017-Jun-21 20:00N 45°33' W 001°01'713.8
2017-Jun-21 19:30N 45°28' W 000°55'814.4
2017-Jun-21 18:58N 45°22' W 000°48'1015.2
2017-Jun-21 18:18N 45°12' W 000°44'17 0.4
2017-Jun-20 02:06N 44°57' W 000°33'113.5
2017-Jun-20 02:00N 44°58' W 000°33'5 9.7
2017-Jun-20 01:30N 45°02' W 000°36'714.3
2017-Jun-20 01:00N 45°08' W 000°42'713.7
2017-Jun-20 00:28N 45°15' W 000°45'613.9
2017-Jun-20 00:01N 45°21' W 000°48'2214.7
2017-Jun-19 22:29N 45°38' W 001°08'813.4
2017-Jun-19 21:53N 45°38' W 001°19'512.2
2017-Jun-19 21:30N 45°36' W 001°25'510.3
2017-Jun-19 21:00N 45°34' W 001°32'20 9.4
2017-Jun-19 18:50N 45°27' W 001°59'11610.9
2017-Jun-19 08:11N 44°46' W 004°33'8412.7
2017-Jun-19 01:31N 44°16' W 006°24'312.3
2017-Jun-19 01:15N 44°15' W 006°28'147 6.7
2017-Jun-18 03:14N 43°24' W 009°39'9912.8
2017-Jun-17 19:33N 41°46' W 009°19'112.5
2017-Jun-17 19:26N 41°45' W 009°18'512.5
2017-Jun-17 19:00N 41°40' W 009°14'612.2
2017-Jun-17 18:30N 41°35' W 009°09'612.6
2017-Jun-17 18:00N 41°30' W 009°05'612.5
2017-Jun-17 17:30N 41°25' W 009°00'612.6
2017-Jun-17 17:00N 41°20' W 008°56'612.7
2017-Jun-17 16:31N 41°14' W 008°51'22 2.2
2017-Jun-17 06:25N 40°52' W 008°57'512.7
2017-Jun-17 06:00N 40°48' W 008°59'2612.9
2017-Jun-17 04:01N 40°24' W 009°12'012.4
2017-Jun-17 04:00N 40°24' W 009°12'612.6
2017-Jun-17 03:30N 40°18' W 009°16'712.4
2017-Jun-17 02:56N 40°12' W 009°20'512.5
2017-Jun-17 02:30N 40°07' W 009°23'612.6
2017-Jun-17 02:01N 40°02' W 009°27'612.3
2017-Jun-17 01:30N 39°56' W 009°30'612.3
2017-Jun-17 01:00N 39°50' W 009°33'612.5
2017-Jun-17 00:30N 39°45' W 009°37'612.3
2017-Jun-17 00:00N 39°39' W 009°40'612.2
2017-Jun-16 23:30N 39°34' W 009°44'611.8
2017-Jun-16 23:00N 39°28' W 009°46'612.0
2017-Jun-16 22:30N 39°22' W 009°45'612.3
2017-Jun-16 22:01N 39°16' W 009°45'611.6
2017-Jun-16 21:30N 39°10' W 009°44'611.5
2017-Jun-16 21:01N 39°04' W 009°44'611.6
2017-Jun-16 20:30N 38°59' W 009°43'611.6
2017-Jun-16 20:01N 38°53' W 009°43'611.3
2017-Jun-16 19:31N 38°47' W 009°42'611.5
2017-Jun-16 19:00N 38°41' W 009°42'5 9.2
2017-Jun-16 18:31N 38°38' W 009°38'612.0
2017-Jun-16 18:00N 38°37' W 009°30'611.8
2017-Jun-16 17:30N 38°37' W 009°23'510.8
2017-Jun-16 17:01N 38°41' W 009°18'510.4
2017-Jun-16 16:30N 38°41' W 009°11'3 6.2
2017-Jun-16 16:00N 38°43' W 009°07'0 0.0
2017-Jun-16 15:29N 38°43' W 009°07'0 0.0
2017-Jun-16 14:59N 38°43' W 009°07'0 0.0
2017-Jun-16 13:25N 38°43' W 009°07'0 0.0
2017-Jun-16 12:52N 38°43' W 009°07'0 0.0
2017-Jun-16 12:28N 38°43' W 009°07'0 0.0
2017-Jun-16 11:58N 38°43' W 009°07'0 0.0
2017-Jun-16 11:27N 38°43' W 009°07'0 0.0
2017-Jun-16 11:00N 38°43' W 009°07'0 0.0
2017-Jun-16 10:30N 38°43' W 009°07'0 0.0
2017-Jun-16 10:00N 38°43' W 009°07'0 0.0
2017-Jun-16 09:24N 38°43' W 009°07'0 0.0
2017-Jun-16 08:59N 38°43' W 009°07'0 0.0
2017-Jun-16 08:17N 38°43' W 009°07'0 0.0
2017-Jun-16 07:56N 38°43' W 009°07'0 0.0
2017-Jun-16 07:11N 38°43' W 009°07'0 0.0
2017-Jun-16 06:58N 38°43' W 009°07'0 0.0
2017-Jun-16 06:30N 38°43' W 009°07'0 0.3
2017-Jun-16 06:00N 38°43' W 009°07'4 8.2
2017-Jun-16 05:30N 38°41' W 009°12'5 9.3
2017-Jun-16 05:00N 38°40' W 009°18'5 9.5
2017-Jun-16 04:30N 38°37' W 009°22'5 9.7
2017-Jun-16 04:00N 38°32' W 009°23'714.4
2017-Jun-16 03:31N 38°25' W 009°23'815.1
2017-Jun-16 03:00N 38°17' W 009°22'714.9
2017-Jun-16 02:31N 38°10' W 009°22'714.6
2017-Jun-16 02:00N 38°03' W 009°22'714.4
2017-Jun-16 01:30N 37°55' W 009°22'714.1
2017-Jun-16 01:00N 37°48' W 009°21'714.0
2017-Jun-16 00:30N 37°41' W 009°21'714.0
2017-Jun-16 00:01N 37°34' W 009°21'714.2
2017-Jun-15 23:31N 37°27' W 009°21'713.8
2017-Jun-15 23:01N 37°20' W 009°21'713.4
2017-Jun-15 22:30N 37°14' W 009°21'713.4
2017-Jun-15 22:00N 37°07' W 009°20'713.2
2017-Jun-15 21:30N 37°00' W 009°20'611.5
2017-Jun-15 21:00N 36°55' W 009°18'612.1
2017-Jun-15 20:29N 36°50' W 009°14'510.2
2017-Jun-15 20:00N 36°46' W 009°10'3217.1
2017-Jun-15 20:00N 36°48' W 009°06'4 8.8 350 / 211015.5 5.4 19.816.221.4
2017-Jun-15 19:30N 36°44' W 009°04'5 9.7
2017-Jun-15 19:00N 36°45' W 008°58'611.9
2017-Jun-15 18:30N 36°49' W 008°53'612.1
2017-Jun-15 18:00N 36°53' W 008°47'612.2
2017-Jun-15 17:30N 36°57' W 008°42'612.0
2017-Jun-15 17:00N 37°01' W 008°36'511.0
2017-Jun-15 16:30N 37°05' W 008°32'2 4.4
2017-Jun-15 16:00N 37°08' W 008°32'0 0.0
2017-Jun-15 15:30N 37°08' W 008°32'0 0.0
2017-Jun-15 14:59N 37°08' W 008°32'0 0.0
2017-Jun-15 14:29N 37°08' W 008°32'0 0.0
2017-Jun-15 13:28N 37°08' W 008°32'0 0.0
2017-Jun-15 12:58N 37°08' W 008°32'0 0.0
2017-Jun-15 12:19N 37°08' W 008°32'0 0.0
2017-Jun-15 11:58N 37°08' W 008°32'0 0.0
2017-Jun-15 11:30N 37°08' W 008°32'0 0.0
2017-Jun-15 11:00N 37°08' W 008°32'0 0.0
2017-Jun-15 10:30N 37°08' W 008°32'0 0.1
2017-Jun-15 10:00N 37°08' W 008°32'0 0.4
2017-Jun-15 09:30N 37°08' W 008°32'4 7.8
2017-Jun-15 09:00N 37°04' W 008°29'815.0
2017-Jun-15 08:30N 37°01' W 008°21'816.1
2017-Jun-15 08:00N 36°58' W 008°12'816.1
2017-Jun-15 07:30N 36°55' W 008°02'815.9
2017-Jun-15 07:00N 36°52' W 007°53'815.8
2017-Jun-15 06:30N 36°51' W 007°43'1415.7
2017-Jun-15 05:37N 36°50' W 007°26'1315.5
2017-Jun-15 04:45N 36°49' W 007°09'22 0.8
2017-Jun-14 00:58N 36°40' W 006°44'  

Dump ship's entire track history